Time;durP1;ratioP1;P1;durP2;ratioP2;P2;SDS_P1;SDS_P2;PMS_P1;PMS_P2;Temp;Humidity;BMP_temperature;BMP_pressure;BME280_temperature;BME280_humidity;BME280_pressure;Samples;Min_cycle;Max_cycle;Signal;HPM_P1;HPM_P2
2022/09/04 00:02:33;;;;;;;10.15;6.57;;;;;;;16.74;100.00;98875.56;5014562;28;20044;-92
2022/09/04 00:05:07;;;;;;;8.75;5.90;;;;;;;16.84;100.00;98898.38;5013443;28;20064;-94
2022/09/04 00:07:41;;;;;;;10.23;6.35;;;;;;;16.74;100.00;98878.25;5014390;28;20052;-94
2022/09/04 00:10:15;;;;;;;11.30;6.63;;;;;;;16.74;100.00;98879.16;5013878;28;20049;-96
2022/09/04 00:12:49;;;;;;;9.23;6.00;;;;;;;16.67;100.00;98861.59;5014157;28;20120;-93
2022/09/04 00:15:20;;;;;;;11.27;6.20;;;;;;;16.78;100.00;98893.28;5014134;28;20046;-94
2022/09/04 00:17:53;;;;;;;9.43;6.20;;;;;;;16.74;100.00;98892.56;5059628;28;20049;-94
2022/09/04 00:20:31;;;;;;;9.43;5.90;;;;;;;16.81;100.00;98906.59;5075393;28;20493;-93
2022/09/04 00:23:03;;;;;;;11.30;6.10;;;;;;;16.69;100.00;98891.06;5075529;28;20052;-94
2022/09/04 00:25:34;;;;;;;12.48;6.63;;;;;;;16.64;100.00;98875.19;5075592;28;20044;-93
2022/09/04 00:28:07;;;;;;;13.18;6.03;;;;;;;16.76;100.00;98892.47;5075465;28;20051;-93
2022/09/04 00:30:40;;;;;;;8.52;5.82;;;;;;;16.65;100.00;98858.13;5075918;28;20040;-94
2022/09/04 00:33:13;;;;;;;10.65;6.40;;;;;;;16.78;100.00;98848.47;5075939;28;20052;-92
2022/09/04 00:35:47;;;;;;;9.98;6.18;;;;;;;16.77;100.00;98844.06;5077222;28;20091;-93
2022/09/04 00:38:20;;;;;;;11.25;6.93;;;;;;;16.82;100.00;98851.91;5076571;28;20105;-95
2022/09/04 00:40:56;;;;;;;9.95;6.22;;;;;;;16.82;100.00;98852.78;5076484;28;20375;-95
2022/09/04 00:44:06;;;;;;;8.90;6.43;;;;;;;16.90;100.00;98856.91;5075991;28;20071;-93
2022/09/04 00:46:56;;;;;;;8.18;6.28;;;;;;;16.92;100.00;98858.56;5075766;28;20067;-94
2022/09/04 00:49:49;;;;;;;10.15;6.40;;;;;;;16.95;100.00;98861.09;5075045;28;20052;-94
2022/09/04 00:52:30;;;;;;;11.00;6.15;;;;;;;16.86;100.00;98850.81;5075214;28;20051;-94
2022/09/04 00:55:14;;;;;;;10.63;6.43;;;;;;;16.76;100.00;98838.78;5075085;28;20044;-93
2022/09/04 00:58:11;;;;;;;13.45;7.05;;;;;;;16.85;100.00;98862.53;5077690;28;20102;-94
2022/09/04 01:00:37;;;;;;;11.38;6.90;;;;;;;16.70;100.00;98844.44;5079059;28;20071;-93
2022/09/04 01:03:22;;;;;;;10.48;6.65;;;;;;;16.64;100.00;98849.19;5077344;28;20387;-94
2022/09/04 01:06:11;;;;;;;9.25;6.18;;;;;;;16.62;100.00;98855.59;5078505;28;20055;-94
2022/09/04 01:09:00;;;;;;;8.48;6.40;;;;;;;16.57;100.00;98861.19;5078633;28;20371;-93
2022/09/04 01:11:33;;;;;;;;;;;;;;;16.64;100.00;98893.97;5065865;28;20096;-94
2022/09/04 01:14:09;;;;;;;12.80;6.63;;;;;;;16.54;100.00;98874.75;5078673;28;19916;-93
2022/09/04 01:16:45;;;;;;;14.07;7.30;;;;;;;16.48;100.00;98874.19;5078893;28;20040;-93
2022/09/04 01:19:28;;;;;;;11.98;6.70;;;;;;;16.42;100.00;98889.66;5078656;28;20052;-92
2022/09/04 01:22:12;;;;;;;13.02;7.18;;;;;;;16.45;100.00;98891.31;5078628;28;20040;-94
2022/09/04 01:25:01;;;;;;;13.00;7.65;;;;;;;16.40;100.00;98890.69;5058694;28;20037;-95
2022/09/04 01:27:35;;;;;;;12.93;7.85;;;;;;;16.43;100.00;98890.53;5074391;28;20041;-94
2022/09/04 01:30:06;;;;;;;13.45;7.63;;;;;;;16.34;100.00;98875.75;5070396;28;20108;-93
2022/09/04 01:32:44;;;;;;;12.60;7.18;;;;;;;16.31;100.00;98875.00;5078326;28;20114;-94
2022/09/04 01:35:23;;;;;;;9.18;6.53;;;;;;;16.25;100.00;98872.66;5065795;28;20037;-95
2022/09/04 01:37:54;;;;;;;;;;;;;;;16.40;100.00;98896.91;5078924;28;20059;-93
2022/09/04 01:40:32;;;;;;;13.45;6.30;;;;;;;16.29;100.00;98887.66;5078552;28;19938;-93
2022/09/04 01:43:05;;;;;;;11.25;6.07;;;;;;;16.20;100.00;98881.78;5078364;28;20036;-93
2022/09/04 01:45:45;;;;;;;9.05;6.47;;;;;;;16.27;100.00;98906.50;5078347;28;20048;-93
2022/09/04 01:48:15;;;;;;;10.98;6.38;;;;;;;16.31;100.00;98926.00;5078114;28;20420;-94
2022/09/04 01:50:46;;;;;;;14.02;7.10;;;;;;;16.23;100.00;98921.88;5078122;28;20111;-93
2022/09/04 01:53:19;;;;;;;10.50;7.13;;;;;;;16.18;100.00;98902.47;5077287;28;20079;-93
2022/09/04 01:55:54;;;;;;;10.60;7.47;;;;;;;16.30;100.00;98910.88;5076625;28;20079;-93
2022/09/04 01:58:34;;;;;;;13.20;7.32;;;;;;;16.33;100.00;98914.28;5076544;28;20064;-94
2022/09/04 02:01:13;;;;;;;15.18;7.05;;;;;;;16.21;100.00;98896.94;5076527;28;20522;-94
2022/09/04 02:03:48;;;;;;;15.48;7.97;;;;;;;16.19;100.00;98895.28;5076475;28;20067;-94
2022/09/04 02:06:26;;;;;;;12.05;7.82;;;;;;;16.23;100.00;98907.59;5056571;28;20060;-94
2022/09/04 02:09:10;;;;;;;11.75;7.00;;;;;;;16.18;100.00;98898.91;5060489;28;20186;-94
2022/09/04 02:11:39;;;;;;;13.68;7.32;;;;;;;16.18;100.00;98897.09;5076305;28;20225;-95
2022/09/04 02:14:14;;;;;;;;;;;;;;;16.20;100.00;98900.56;5077948;28;20063;-94
2022/09/04 02:16:55;;;;;;;11.95;7.35;;;;;;;16.12;100.00;98908.13;5077217;28;19924;-94
2022/09/04 02:19:34;;;;;;;13.70;7.20;;;;;;;16.12;100.00;98905.44;5076953;28;20037;-93
2022/09/04 02:22:16;;;;;;;19.52;7.85;;;;;;;16.10;100.00;98893.03;5076633;28;20499;-93
2022/09/04 02:24:55;;;;;;;14.77;9.15;;;;;;;16.06;100.00;98878.88;5076381;28;20098;-95
2022/09/04 02:27:30;;;;;;;15.93;7.57;;;;;;;16.08;100.00;98884.19;5075983;28;20075;-95
2022/09/04 02:30:01;;;;;;;14.07;8.13;;;;;;;16.04;100.00;98890.66;5076144;28;20041;-93
2022/09/04 02:32:36;;;;;;;12.43;7.63;;;;;;;15.94;100.00;98877.69;5077214;28;20386;-93
2022/09/04 02:35:14;;;;;;;15.00;8.73;;;;;;;16.08;100.00;98903.84;5076974;28;20379;-93
2022/09/04 02:37:50;;;;;;;16.08;8.98;;;;;;;15.94;100.00;98879.47;5077192;28;20045;-96
2022/09/04 02:40:26;;;;;;;9.60;6.85;;;;;;;16.01;100.00;98897.91;5077294;28;20199;-94
2022/09/04 02:43:05;;;;;;;11.07;6.60;;;;;;;16.01;100.00;98899.72;5077010;28;20083;-95
2022/09/04 02:45:41;;;;;;;13.75;7.28;;;;;;;15.98;100.00;98902.53;5076911;28;20129;-93
2022/09/04 02:48:14;;;;;;;12.95;7.53;;;;;;;15.96;100.00;98894.56;5076864;28;20492;-95
2022/09/04 02:51:12;;;;;;;10.45;6.57;;;;;;;15.92;100.00;98900.16;5076728;28;20040;-93
2022/09/04 02:53:46;;;;;;;9.43;6.40;;;;;;;15.89;100.00;98922.59;5056394;28;20466;-93
2022/09/04 02:56:24;;;;;;;12.35;6.80;;;;;;;15.77;100.00;98907.97;5070846;28;20285;-93
2022/09/04 02:59:02;;;;;;;11.20;7.00;;;;;;;15.77;100.00;98907.09;5077131;28;20075;-94
2022/09/04 03:01:45;;;;;;;10.93;7.00;;;;;;;15.82;100.00;98919.31;5070558;28;20394;-94
2022/09/04 03:04:17;;;;;;;13.63;6.97;;;;;;;15.77;100.00;98913.31;5075905;28;20044;-93
2022/09/04 03:06:50;;;;;;;11.85;7.60;;;;;;;15.71;100.00;98904.66;5076798;28;20076;-95
2022/09/04 03:09:23;;;;;;;11.98;7.25;;;;;;;15.85;100.00;98925.50;5076327;28;20041;-93
2022/09/04 03:11:56;;;;;;;10.38;7.18;;;;;;;15.75;100.00;98901.78;5076878;28;20071;-95
2022/09/04 03:14:33;;;;;;;10.70;7.15;;;;;;;15.89;100.00;98922.59;5076605;28;20060;-94
2022/09/04 03:17:09;;;;;;;14.07;7.65;;;;;;;15.78;100.00;98911.50;5077130;28;20044;-94
2022/09/04 03:19:41;;;;;;;11.52;8.05;;;;;;;15.66;100.00;98894.16;5077503;28;20045;-94
2022/09/04 03:22:15;;;;;;;13.43;9.13;;;;;;;15.70;100.00;98901.09;5078596;28;20045;-95
2022/09/04 03:25:03;;;;;;;14.38;9.18;;;;;;;15.78;100.00;98922.22;5075144;28;20040;-96
2022/09/04 03:27:31;;;;;;;13.63;8.95;;;;;;;15.75;100.00;98904.47;5077758;28;20045;-94
2022/09/04 03:30:02;;;;;;;14.33;10.00;;;;;;;15.73;100.00;98892.94;5077692;28;20042;-94
2022/09/04 03:32:39;;;;;;;12.25;8.80;;;;;;;15.73;100.00;98890.25;5077463;28;20040;-92
2022/09/04 03:35:09;;;;;;;14.85;9.13;;;;;;;15.70;100.00;98874.31;5078637;28;20036;-95
2022/09/04 03:38:04;;;;;;;13.90;9.25;;;;;;;15.86;100.00;98908.47;5078608;28;20040;-93
2022/09/04 03:40:36;;;;;;;16.63;9.25;;;;;;;15.91;100.00;98912.66;5060118;28;20060;-94
2022/09/04 03:43:27;;;;;;;12.50;8.43;;;;;;;15.92;100.00;98925.16;5078243;28;20056;-94
2022/09/04 03:46:01;;;;;;;21.08;11.25;;;;;;;15.75;100.00;98895.56;5068014;28;20072;-94
2022/09/04 03:48:42;;;;;;;13.93;9.32;;;;;;;15.80;100.00;98905.13;5076170;28;20045;-94
2022/09/04 03:51:16;;;;;;;12.50;8.90;;;;;;;15.97;100.00;98914.19;5076576;28;20047;-94
2022/09/04 03:53:44;;;;;;;13.38;8.50;;;;;;;15.84;100.00;98894.28;5076298;28;20060;-94
2022/09/04 03:56:31;;;;;;;13.38;8.23;;;;;;;15.81;100.00;98892.59;5076355;28;20493;-93
2022/09/04 03:59:03;;;;;;;14.63;8.40;;;;;;;15.73;100.00;98906.34;5077516;28;20037;-94
2022/09/04 04:01:40;;;;;;;12.88;9.40;;;;;;;15.73;100.00;98900.13;5076092;28;20040;-92
2022/09/04 04:04:34;;;;;;;15.27;9.18;;;;;;;15.84;100.00;98913.91;5075955;28;20094;-94
2022/09/04 04:07:11;;;;;;;18.98;9.63;;;;;;;15.85;100.00;98912.09;5076154;28;20044;-95
2022/09/04 04:09:57;;;;;;;14.10;9.85;;;;;;;15.89;100.00;98924.41;5072137;28;20063;-93
2022/09/04 04:12:44;;;;;;;14.45;9.13;;;;;;;15.85;100.00;98914.75;5055878;28;20044;-93
2022/09/04 04:15:31;;;;;;;13.73;8.30;;;;;;;15.96;100.00;98932.13;5067793;28;20102;-94
2022/09/04 04:18:12;;;;;;;12.85;8.68;;;;;;;15.96;100.00;98952.69;5075308;28;20048;-93
2022/09/04 04:20:45;;;;;;;14.68;8.77;;;;;;;15.96;100.00;98960.72;5074764;28;20048;-95
2022/09/04 04:23:28;;;;;;;13.57;9.07;;;;;;;15.92;100.00;98954.66;5075592;28;20532;-93
2022/09/04 04:26:08;;;;;;;15.77;9.27;;;;;;;15.92;100.00;98954.66;5074865;28;20051;-94
2022/09/04 04:28:55;;;;;;;13.65;9.02;;;;;;;15.92;100.00;98945.75;5075203;28;20474;-93
2022/09/04 04:31:33;;;;;;;11.77;7.30;;;;;;;15.90;100.00;98939.56;5076664;28;20067;-94
2022/09/04 04:34:09;;;;;;;10.43;7.15;;;;;;;16.01;100.00;98934.59;5081099;28;20045;-94
2022/09/04 04:36:47;;;;;;;12.05;7.50;;;;;;;16.01;100.00;98931.91;5079077;28;20036;-93
2022/09/04 04:39:20;;;;;;;13.57;7.53;;;;;;;15.96;100.00;98916.03;5079464;28;20040;-94
2022/09/04 04:42:20;;;;;;;11.68;8.13;;;;;;;16.05;100.00;98944.22;5080452;28;20127;-93
2022/09/04 04:48:28;;;;;;;15.77;9.10;;;;;;;15.58;100.00;98915.94;5139006;27;20132;-94
2022/09/04 04:51:07;;;;;;;51.95;10.82;;;;;;;15.38;100.00;98919.50;5138878;27;20039;-94
2022/09/04 04:53:44;;;;;;;13.45;8.65;;;;;;;15.33;100.00;98926.88;5137704;27;20043;-94
2022/09/04 04:56:16;;;;;;;26.88;9.65;;;;;;;15.23;100.00;98922.84;5144280;27;20441;-94
2022/09/04 04:59:07;;;;;;;14.63;8.93;;;;;;;15.26;100.00;98938.78;5140837;27;20043;-96
2022/09/04 05:01:45;;;;;;;15.77;9.35;;;;;;;15.38;100.00;98942.75;5139300;27;20047;-95
2022/09/04 05:04:22;;;;;;;15.60;8.95;;;;;;;15.34;100.00;98915.22;5137177;27;20036;-96
2022/09/04 05:06:53;;;;;;;12.35;8.57;;;;;;;15.47;100.00;98936.13;5137911;27;20036;-94
2022/09/04 05:09:31;;;;;;;14.70;9.13;;;;;;;15.56;100.00;98927.66;5137556;27;20047;-96
2022/09/04 05:12:05;;;;;;;14.80;9.20;;;;;;;15.60;100.00;98902.47;5139319;27;20074;-95
2022/09/04 05:14:40;;;;;;;13.52;9.75;;;;;;;15.76;100.00;98906.19;5138150;27;20073;-94
2022/09/04 05:17:16;;;;;;;15.23;8.85;;;;;;;15.75;100.00;98898.25;5139032;27;20035;-95
2022/09/04 05:19:57;;;;;;;14.57;9.75;;;;;;;15.85;100.00;98909.41;5140452;27;20047;-95
2022/09/04 05:22:28;;;;;;;13.75;9.23;;;;;;;15.97;100.00;98924.94;5136432;28;20089;-95
2022/09/04 05:25:03;;;;;;;13.70;8.25;;;;;;;16.06;100.00;98927.19;5136254;27;20046;-94
2022/09/04 05:27:44;;;;;;;12.05;7.78;;;;;;;16.22;100.00;98924.63;5135385;27;20047;-94
2022/09/04 05:30:15;;;;;;;9.98;7.90;;;;;;;16.29;100.00;98915.38;5135670;27;20516;-94
2022/09/04 05:32:54;;;;;;;10.77;7.68;;;;;;;16.37;100.00;98901.56;5135643;27;20047;-93
2022/09/04 05:35:30;;;;;;;10.80;7.35;;;;;;;16.46;100.00;98890.41;5136099;27;20068;-93
2022/09/04 05:38:07;;;;;;;12.73;7.78;;;;;;;16.64;100.00;98915.47;5135056;27;20039;-95
2022/09/04 05:40:54;;;;;;;12.07;7.82;;;;;;;16.77;100.00;98913.03;5135041;27;20051;-94
2022/09/04 05:43:33;;;;;;;15.30;7.15;;;;;;;16.77;100.00;98900.47;5136582;27;20420;-95
2022/09/04 05:46:06;;;;;;;10.65;7.55;;;;;;;16.87;100.00;98902.72;5133759;27;20044;-95
2022/09/04 05:48:41;;;;;;;12.35;8.25;;;;;;;16.81;100.00;98906.59;5133785;27;20096;-96
2022/09/04 05:51:43;;;;;;;10.98;7.20;;;;;;;16.81;100.00;98910.16;5133815;27;20512;-95
2022/09/04 05:54:48;;;;;;;10.23;6.95;;;;;;;17.01;100.00;98911.81;5133842;27;20130;-95
2022/09/04 05:57:40;;;;;;;10.70;7.55;;;;;;;17.02;100.00;98899.25;5088668;28;20055;-95
2022/09/04 06:00:10;;;;;;;11.77;7.70;;;;;;;17.02;100.00;98881.34;5077812;28;20045;-95
2022/09/04 06:02:55;;;;;;;14.88;8.00;;;;;;;17.01;100.00;98865.28;5077534;28;20044;-95
2022/09/04 06:05:34;;;;;;;10.48;6.90;;;;;;;17.09;100.00;98895.31;5077658;28;20048;-95
2022/09/04 06:08:07;;;;;;;;;;;;;;;17.21;100.00;98928.72;5077731;28;20409;-95
2022/09/04 06:10:46;;;;;;;10.23;7.22;;;;;;;17.09;100.00;98948.16;5077077;28;20097;-95
2022/09/04 06:13:40;;;;;;;12.43;7.55;;;;;;;17.10;100.00;98983.03;5077233;28;20379;-95
2022/09/04 06:16:23;;;;;;;12.70;8.32;;;;;;;17.10;100.00;99004.50;5076757;28;20136;-95
2022/09/04 06:19:04;;;;;;;13.73;8.70;;;;;;;17.03;100.00;99016.53;5076771;28;20127;-95
2022/09/04 06:21:51;;;;;;;10.73;7.70;;;;;;;17.10;100.00;99043.97;5077054;28;20045;-96
2022/09/04 06:24:34;;;;;;;15.82;9.38;;;;;;;17.04;100.00;99037.94;5076825;28;20072;-94
2022/09/04 06:27:20;;;;;;;16.75;8.73;;;;;;;17.08;100.00;99044.03;5076837;28;20047;-96
2022/09/04 06:30:00;;;;;;;12.15;9.15;;;;;;;16.92;100.00;99043.06;5075848;28;20529;-95
2022/09/04 06:32:58;;;;;;;13.57;9.48;;;;;;;16.95;100.00;99067.06;5092197;28;20043;-95
2022/09/04 06:35:44;;;;;;;13.65;8.80;;;;;;;16.87;100.00;99053.13;5092505;28;20079;-95
2022/09/04 06:38:23;;;;;;;12.38;8.43;;;;;;;16.87;100.00;99040.56;5118643;28;20064;-94
2022/09/04 06:41:03;;;;;;;12.05;8.48;;;;;;;16.92;100.00;99043.91;5118959;27;20053;-95
2022/09/04 06:43:39;;;;;;;12.05;8.38;;;;;;;16.77;100.00;99013.25;5119111;28;20036;-96
2022/09/04 06:46:20;;;;;;;13.38;9.05;;;;;;;16.93;100.00;99032.22;5119157;27;20039;-95
2022/09/04 06:48:59;;;;;;;15.68;8.90;;;;;;;16.81;100.00;99008.66;5119745;28;20020;-95
2022/09/04 06:51:44;;;;;;;14.13;9.00;;;;;;;16.93;100.00;99016.09;5119115;27;20027;-94
2022/09/04 06:54:20;;;;;;;13.95;9.63;;;;;;;17.03;100.00;99030.81;5119244;27;20066;-95
2022/09/04 06:57:14;;;;;;;16.20;9.82;;;;;;;17.07;100.00;99022.59;5119297;28;20028;-95
2022/09/04 07:00:00;;;;;;;13.30;9.10;;;;;;;17.09;100.00;99009.97;5108928;28;20134;-95
2022/09/04 07:02:53;;;;;;;13.95;9.90;;;;;;;17.16;100.00;99004.22;5116738;28;20096;-95
2022/09/04 07:05:28;;;;;;;12.85;9.13;;;;;;;17.09;100.00;98985.78;5054839;28;20437;-95
2022/09/04 07:08:04;;;;;;;12.20;8.45;;;;;;;17.16;100.00;98982.72;5055344;28;20041;-95
2022/09/04 07:10:32;;;;;;;13.52;9.27;;;;;;;17.15;100.00;98970.22;5054122;28;20049;-95
2022/09/04 07:13:13;;;;;;;;;;;;;;;16.95;100.00;98981.09;5058790;28;20041;-94
2022/09/04 07:16:08;;;;;;;16.25;9.73;;;;;;;16.81;100.00;98946.88;5056157;28;20421;-95
2022/09/04 07:18:53;;;;;;;16.13;9.68;;;;;;;16.97;100.00;98950.53;5037988;28;20051;-96
2022/09/04 07:21:26;;;;;;;15.30;9.85;;;;;;;17.06;100.00;98956.38;5060455;28;20067;-95
2022/09/04 07:24:01;;;;;;;15.45;10.25;;;;;;;17.13;100.00;98973.94;5060040;28;20045;-96
2022/09/04 07:26:35;;;;;;;16.15;10.18;;;;;;;16.89;100.00;98974.22;5054584;28;20152;-94
2022/09/04 07:29:32;;;;;;;17.85;10.77;;;;;;;16.85;100.00;98964.59;5056037;28;20052;-95
2022/09/04 07:32:06;;;;;;;18.10;10.68;;;;;;;17.01;100.00;98994.22;5057994;28;20072;-95
2022/09/04 07:34:40;;;;;;;15.38;9.73;;;;;;;16.93;100.00;98996.44;5058805;28;20049;-95
2022/09/04 07:37:16;;;;;;;14.57;9.70;;;;;;;17.13;100.00;99017.81;5056594;28;20044;-95
2022/09/04 07:39:47;;;;;;;13.23;8.93;;;;;;;17.23;100.00;99010.16;5053706;28;20045;-96
2022/09/04 07:42:19;;;;;;;13.30;8.90;;;;;;;17.48;100.00;99020.53;5085176;28;20672;-95
2022/09/04 07:44:53;;;;;;;12.18;8.32;;;;;;;17.75;100.00;99028.97;5115830;28;20039;-96
2022/09/04 07:47:29;;;;;;;14.43;8.98;;;;;;;18.01;100.00;99024.94;5115590;28;20051;-96
2022/09/04 07:50:02;;;;;;;13.38;9.57;;;;;;;18.18;100.00;99009.72;5115616;28;20040;-96
2022/09/04 07:52:43;;;;;;;14.70;8.77;;;;;;;18.43;100.00;99020.88;5116092;28;20077;-96
2022/09/04 07:55:25;;;;;;;17.27;9.70;;;;;;;18.34;100.00;99005.22;5116637;28;20043;-96
2022/09/04 07:58:06;;;;;;;15.60;10.23;;;;;;;18.31;100.00;99009.91;5098784;28;20044;-96
2022/09/04 08:00:47;;;;;;;15.63;9.93;;;;;;;18.36;100.00;99016.78;5103158;28;20044;-96
2022/09/04 08:03:32;;;;;;;15.32;10.65;;;;;;;18.32;100.00;99012.50;5109087;28;20092;-95
2022/09/04 08:06:04;;;;;;;13.52;9.68;;;;;;;18.40;100.00;99014.78;5124545;28;20370;-96
2022/09/04 08:08:51;;;;;;;13.50;9.75;;;;;;;18.37;98.56;99041.91;5122570;28;20043;-96
2022/09/04 08:11:39;;;;;;;21.70;13.68;;;;;;;18.04;100.00;99045.44;5116510;28;20060;-94
2022/09/04 08:14:24;;;;;;;21.35;14.60;;;;;;;17.99;100.00;99042.13;5112539;28;20427;-96
2022/09/04 08:17:04;;;;;;;18.90;12.27;;;;;;;18.02;100.00;99052.72;5115978;28;20100;-95
2022/09/04 08:19:45;;;;;;;18.67;13.07;;;;;;;17.99;100.00;99050.19;5119732;28;20054;-93
2022/09/04 08:22:16;;;;;;;17.92;11.95;;;;;;;18.03;100.00;99049.09;5119939;28;20042;-94
2022/09/04 08:25:05;;;;;;;18.08;12.38;;;;;;;18.00;100.00;99051.91;5120001;28;20048;-94
2022/09/04 08:28:02;;;;;;;15.32;11.35;;;;;;;18.24;100.00;99074.84;5118542;28;20485;-95
2022/09/04 08:30:38;;;;;;;20.00;11.18;;;;;;;18.26;100.00;99050.56;5121037;28;20039;-96
2022/09/04 08:33:54;;;;;;;20.48;13.25;;;;;;;18.48;99.80;99069.09;5117025;28;20043;-95
2022/09/04 08:36:37;;;;;;;19.58;12.90;;;;;;;18.60;99.65;99081.88;5114510;28;20035;-95
2022/09/04 08:39:09;;;;;;;21.35;12.40;;;;;;;18.75;99.79;99090.06;5116666;28;20050;-95
2022/09/04 08:42:08;;;;;;;20.02;13.80;;;;;;;18.91;98.28;99107.19;5116116;28;20480;-95
2022/09/04 08:45:10;;;;;;;23.98;15.32;;;;;;;18.95;95.61;99103.31;5113651;28;20081;-95
2022/09/04 08:47:54;;;;;;;18.88;14.00;;;;;;;19.05;97.49;99083.00;5083227;28;20047;-95
2022/09/04 08:50:50;;;;;;;20.58;13.57;;;;;;;19.28;96.44;99091.59;5121177;28;20051;-95
2022/09/04 08:53:46;;;;;;;16.63;11.27;;;;;;;19.44;94.33;99097.84;5121603;28;20054;-93
2022/09/04 08:56:20;;;;;;;16.90;11.05;;;;;;;19.38;93.33;99084.69;5117121;28;20490;-95
2022/09/04 08:59:33;;;;;;;14.95;11.27;;;;;;;19.53;92.49;99099.13;5121096;28;20050;-95
2022/09/04 09:02:35;;;;;;;16.42;11.30;;;;;;;19.53;92.54;99076.69;5111885;28;20040;-96
2022/09/04 09:05:31;;;;;;;15.93;10.27;;;;;;;19.72;92.86;99092.69;5120270;28;20044;-96
2022/09/04 09:08:12;;;;;;;16.02;12.18;;;;;;;19.76;92.80;99083.47;5107726;28;20040;-95
2022/09/04 09:11:11;;;;;;;15.50;10.80;;;;;;;19.71;92.74;99081.00;5118042;28;20032;-94
2022/09/04 09:14:08;;;;;;;15.98;10.52;;;;;;;19.78;93.77;99090.50;5103828;28;20118;-94
2022/09/04 09:16:42;;;;;;;16.13;11.23;;;;;;;19.76;95.27;99100.50;5119055;28;20520;-95
2022/09/04 09:19:17;;;;;;;15.05;10.93;;;;;;;19.78;94.84;99068.00;5120234;28;20044;-94
2022/09/04 09:21:44;;;;;;;13.68;10.55;;;;;;;19.90;92.59;99065.44;5121420;28;20047;-94
2022/09/04 09:24:38;;;;;;;17.70;10.68;;;;;;;20.04;91.79;99061.06;5120831;28;20039;-96
2022/09/04 09:27:40;;;;;;;13.60;9.27;;;;;;;20.08;91.58;99057.19;5120962;28;20043;-95
2022/09/04 09:30:10;;;;;;;12.07;9.07;;;;;;;20.17;89.77;99045.84;5120622;28;20046;-95
2022/09/04 09:33:24;;;;;;;15.50;10.30;;;;;;;20.31;90.05;99034.16;5124027;28;20063;-94
2022/09/04 09:36:25;;;;;;;15.02;9.68;;;;;;;20.57;86.96;99037.06;5082536;28;20040;-96
2022/09/04 09:39:34;;;;;;;14.68;10.80;;;;;;;20.64;87.34;99046.53;5082350;28;20044;-94
2022/09/04 09:42:36;;;;;;;15.23;9.85;;;;;;;20.76;85.79;99034.94;5082325;28;20198;-95
2022/09/04 09:45:20;;;;;;;14.15;10.32;;;;;;;20.88;85.51;99019.75;5071112;28;20100;-96
2022/09/04 09:48:19;;;;;;;15.50;9.55;;;;;;;21.19;84.80;99025.81;5082799;28;20540;-95
2022/09/04 09:51:27;;;;;;;14.60;9.05;;;;;;;21.63;81.92;99038.25;5066322;28;20040;-95
2022/09/04 09:54:33;;;;;;;16.27;9.85;;;;;;;21.52;80.48;99018.19;5082751;28;20663;-95
2022/09/04 09:57:37;;;;;;;13.05;9.02;;;;;;;21.47;81.63;99017.66;5052775;28;20040;-95
2022/09/04 10:00:16;;;;;;;14.82;10.18;;;;;;;21.47;83.62;99006.81;5084595;28;20052;-95
2022/09/04 10:03:26;;;;;;;13.15;9.73;;;;;;;21.76;82.90;99014.78;5082334;28;20090;-95
2022/09/04 10:06:43;;;;;;;20.55;11.55;;;;;;;22.19;81.31;99002.78;5083516;28;20037;-95
2022/09/04 10:09:52;;;;;;;14.80;9.87;;;;;;;22.37;78.03;99023.16;5072421;28;20045;-95
2022/09/04 10:12:40;;;;;;;15.02;10.82;;;;;;;22.02;79.37;99028.34;5108393;28;20071;-94
2022/09/04 10:15:47;;;;;;;14.90;10.90;;;;;;;22.04;80.56;99029.09;5124255;28;20114;-96
2022/09/04 10:18:45;;;;;;;12.68;9.43;;;;;;;22.37;79.91;99031.28;5118789;28;20032;-95
2022/09/04 10:21:48;;;;;;;14.55;10.15;;;;;;;22.53;78.65;99033.75;5121450;28;20042;-95
2022/09/04 10:24:59;;;;;;;14.75;10.18;;;;;;;22.65;78.13;99038.28;5122674;28;20489;-95
2022/09/04 10:27:51;;;;;;;19.13;11.20;;;;;;;22.79;76.86;99031.84;5120304;28;20079;-95
2022/09/04 10:30:19;;;;;;;14.40;10.00;;;;;;;22.77;76.29;99039.25;5112563;28;20042;-95
2022/09/04 10:33:15;;;;;;;14.53;10.33;;;;;;;22.83;76.01;99032.50;5099793;28;20048;-96
2022/09/04 10:35:55;;;;;;;15.07;10.18;;;;;;;22.79;78.19;99031.00;5117222;28;20291;-96
2022/09/04 10:38:33;;;;;;;16.52;10.98;;;;;;;22.51;77.28;99025.75;5118314;28;20043;-95
2022/09/04 10:41:38;;;;;;;18.60;10.73;;;;;;;22.54;78.19;99041.78;5120121;28;20047;-96
2022/09/04 10:44:28;;;;;;;16.98;11.70;;;;;;;22.73;79.30;99051.31;5116819;28;20089;-96
2022/09/04 10:47:05;;;;;;;15.63;11.02;;;;;;;22.92;78.00;99048.97;5120157;28;20056;-93
2022/09/04 10:50:00;;;;;;;16.88;11.52;;;;;;;23.03;76.48;99059.06;5119828;28;20477;-95
2022/09/04 10:53:00;;;;;;;17.65;12.57;;;;;;;23.08;77.37;99042.44;5116312;28;20050;-95
2022/09/04 10:55:41;;;;;;;21.10;13.20;;;;;;;23.21;76.59;99045.97;5109223;28;20044;-95
2022/09/04 10:58:33;;;;;;;22.08;13.00;;;;;;;23.25;77.21;99043.88;5113721;28;20051;-96
2022/09/04 11:01:26;;;;;;;20.80;12.80;;;;;;;23.08;77.88;99059.59;5112419;28;20511;-95
2022/09/04 11:04:21;;;;;;;19.73;12.70;;;;;;;23.08;77.02;99024.31;5117413;28;20127;-94
2022/09/04 11:07:23;;;;;;;19.42;12.95;;;;;;;23.20;76.94;99022.53;5108211;28;20062;-93
2022/09/04 11:10:15;;;;;;;22.10;14.30;;;;;;;23.33;76.36;99023.34;5104224;28;20515;-96
2022/09/04 11:13:30;;;;;;;23.38;15.25;;;;;;;23.17;76.90;99020.06;5121577;28;20438;-96
2022/09/04 11:16:19;;;;;;;24.33;16.17;;;;;;;23.26;77.28;99022.06;5115678;28;20052;-96
2022/09/04 11:19:32;;;;;;;23.95;15.07;;;;;;;23.15;78.08;99011.16;5118389;28;20047;-95
2022/09/04 11:22:41;;;;;;;24.23;14.43;;;;;;;23.21;77.38;98999.00;5112355;28;20039;-96
2022/09/04 11:26:04;;;;;;;22.00;14.40;;;;;;;23.32;78.29;99010.75;5122362;28;20040;-96
2022/09/04 11:28:55;;;;;;;22.90;14.88;;;;;;;23.42;76.93;99013.66;5113651;28;20043;-96
2022/09/04 11:31:38;;;;;;;20.92;14.10;;;;;;;23.46;76.69;99012.41;5122953;28;20130;-95
2022/09/04 11:34:41;;;;;;;21.33;14.95;;;;;;;23.56;77.21;99004.44;5122631;28;20044;-95
2022/09/04 11:37:55;;;;;;;20.42;14.20;;;;;;;23.69;76.82;98998.94;5108400;28;20040;-96
2022/09/04 11:41:11;;;;;;;24.58;14.93;;;;;;;23.72;75.38;98990.53;5122768;28;20064;-96
2022/09/04 11:44:15;;;;;;;20.02;14.35;;;;;;;23.96;75.71;99021.25;5059718;28;20045;-96
2022/09/04 11:47:16;;;;;;;22.95;14.88;;;;;;;23.85;74.83;99012.19;5072021;28;20057;-95
2022/09/04 11:50:03;;;;;;;20.95;14.82;;;;;;;24.10;75.82;99030.16;5060193;28;20149;-96
2022/09/04 11:53:07;;;;;;;23.40;15.25;;;;;;;24.32;74.42;99011.16;5040713;28;20041;-95
2022/09/04 11:56:01;;;;;;;23.40;14.40;;;;;;;24.42;72.61;98996.81;5060088;28;20128;-95
2022/09/04 11:58:59;;;;;;;24.02;14.05;;;;;;;24.44;73.05;98990.31;5046045;28;20045;-96
2022/09/04 12:01:44;;;;;;;21.17;14.73;;;;;;;24.67;71.76;99002.03;5067024;28;20134;-94
2022/09/04 12:04:32;;;;;;;25.98;16.40;;;;;;;24.92;71.42;99019.09;5054844;28;20064;-95
2022/09/04 12:07:24;;;;;;;27.13;17.02;;;;;;;24.75;70.86;99010.44;5048825;28;20087;-95
2022/09/04 12:10:19;;;;;;;24.45;16.38;;;;;;;24.71;73.24;99000.81;5059142;28;20041;-95
2022/09/04 12:13:29;;;;;;;23.35;15.80;;;;;;;24.99;72.57;99021.16;5061852;28;20080;-96
2022/09/04 12:16:31;;;;;;;23.00;14.60;;;;;;;25.12;73.17;99015.56;5058123;28;20049;-96
2022/09/04 12:19:25;;;;;;;21.38;15.10;;;;;;;25.14;72.55;99002.69;5057082;28;20045;-95
2022/09/04 12:22:33;;;;;;;24.05;15.30;;;;;;;25.39;70.51;99006.09;5055676;28;20052;-96
2022/09/04 12:25:05;;;;;;;;;;;;;;;25.45;69.13;98997.41;4947665;29;20500;-96
2022/09/04 12:28:10;;;;;;;23.73;13.60;;;;;;;25.41;69.69;98985.06;4960605;29;20017;-96
2022/09/04 12:30:53;;;;;;;23.02;12.95;;;;;;;25.35;69.81;98991.00;4945948;29;20054;-94
2022/09/04 12:34:07;;;;;;;17.80;12.10;;;;;;;25.59;70.34;99008.00;4959985;29;20125;-96
2022/09/04 12:37:10;;;;;;;19.45;12.77;;;;;;;25.64;68.61;98998.59;4923501;29;20426;-96
2022/09/04 12:40:08;;;;;;;18.17;12.57;;;;;;;25.64;69.67;98993.13;4923040;29;20075;-95
2022/09/04 12:42:40;;;;;;;20.60;12.80;;;;;;;25.62;68.30;98999.56;4925139;29;20071;-96